sensor_id;sensor_type;location;lat;lon;timestamp;pressure;altitude;pressure_sealevel;temperature;humidity
53484;BME280;75581;50.088;19.966;2024-03-17T00:01:21;99273.19;;;10.00;77.68
53484;BME280;75581;50.088;19.966;2024-03-17T00:03:49;99271.92;;;9.99;77.71
53484;BME280;75581;50.088;19.966;2024-03-17T00:06:17;99273.48;;;9.97;77.45
53484;BME280;75581;50.088;19.966;2024-03-17T00:08:45;99279.14;;;9.96;77.57
53484;BME280;75581;50.088;19.966;2024-03-17T00:11:12;99281.89;;;9.94;77.39
53484;BME280;75581;50.088;19.966;2024-03-17T00:13:40;99281.27;;;9.93;77.33
53484;BME280;75581;50.088;19.966;2024-03-17T00:16:08;99280.30;;;9.92;77.45
53484;BME280;75581;50.088;19.966;2024-03-17T00:18:37;99282.54;;;9.91;77.32
53484;BME280;75581;50.088;19.966;2024-03-17T00:21:04;99285.71;;;9.89;77.32
53484;BME280;75581;50.088;19.966;2024-03-17T00:23:32;99286.61;;;9.88;77.44
53484;BME280;75581;50.088;19.966;2024-03-17T00:26:00;99291.10;;;9.88;77.34
53484;BME280;75581;50.088;19.966;2024-03-17T00:28:27;99287.05;;;9.87;77.38
53484;BME280;75581;50.088;19.966;2024-03-17T00:30:58;99287.21;;;9.87;77.41
53484;BME280;75581;50.088;19.966;2024-03-17T00:33:26;99287.60;;;9.88;77.45
53484;BME280;75581;50.088;19.966;2024-03-17T00:35:54;99292.34;;;9.88;77.27
53484;BME280;75581;50.088;19.966;2024-03-17T00:38:23;99297.81;;;9.85;77.33
53484;BME280;75581;50.088;19.966;2024-03-17T00:40:51;99301.20;;;9.79;76.87
53484;BME280;75581;50.088;19.966;2024-03-17T00:43:19;99308.21;;;9.67;75.34
53484;BME280;75581;50.088;19.966;2024-03-17T00:45:53;99315.42;;;9.55;75.02
53484;BME280;75581;50.088;19.966;2024-03-17T00:48:21;99314.73;;;9.40;74.76
53484;BME280;75581;50.088;19.966;2024-03-17T00:50:55;99318.54;;;9.27;74.52
53484;BME280;75581;50.088;19.966;2024-03-17T00:53:28;99319.40;;;9.13;74.50
53484;BME280;75581;50.088;19.966;2024-03-17T00:55:56;99319.20;;;9.00;74.70
53484;BME280;75581;50.088;19.966;2024-03-17T00:58:25;99326.32;;;8.89;74.82
53484;BME280;75581;50.088;19.966;2024-03-17T01:00:53;99326.03;;;8.79;75.02
53484;BME280;75581;50.088;19.966;2024-03-17T01:03:21;99330.13;;;8.71;75.39
53484;BME280;75581;50.088;19.966;2024-03-17T01:05:49;99339.85;;;8.62;75.56
53484;BME280;75581;50.088;19.966;2024-03-17T01:08:20;99342.50;;;8.56;75.93
53484;BME280;75581;50.088;19.966;2024-03-17T01:10:48;99341.17;;;8.49;76.08
53484;BME280;75581;50.088;19.966;2024-03-17T01:13:17;99347.18;;;8.42;76.32
53484;BME280;75581;50.088;19.966;2024-03-17T01:15:45;99356.20;;;8.35;76.68
53484;BME280;75581;50.088;19.966;2024-03-17T01:18:13;99354.20;;;8.27;76.72
53484;BME280;75581;50.088;19.966;2024-03-17T01:20:41;99350.16;;;8.16;76.37
53484;BME280;75581;50.088;19.966;2024-03-17T01:23:08;99354.41;;;8.06;76.20
53484;BME280;75581;50.088;19.966;2024-03-17T01:25:36;99350.95;;;7.99;76.02
53484;BME280;75581;50.088;19.966;2024-03-17T01:28:04;99362.68;;;7.90;75.91
53484;BME280;75581;50.088;19.966;2024-03-17T01:30:32;99366.64;;;7.83;75.76
53484;BME280;75581;50.088;19.966;2024-03-17T01:33:01;99364.09;;;7.75;75.47
53484;BME280;75581;50.088;19.966;2024-03-17T01:35:30;99371.17;;;7.69;75.38
53484;BME280;75581;50.088;19.966;2024-03-17T01:37:58;99371.90;;;7.65;75.38
53484;BME280;75581;50.088;19.966;2024-03-17T01:40:26;99373.38;;;7.60;75.02
53484;BME280;75581;50.088;19.966;2024-03-17T01:42:53;99383.08;;;7.56;75.19
53484;BME280;75581;50.088;19.966;2024-03-17T01:45:32;99375.73;;;7.54;74.90
53484;BME280;75581;50.088;19.966;2024-03-17T01:48:02;99381.13;;;7.50;74.67
53484;BME280;75581;50.088;19.966;2024-03-17T01:50:36;99382.03;;;7.47;74.53
53484;BME280;75581;50.088;19.966;2024-03-17T01:53:06;99388.95;;;7.44;74.52
53484;BME280;75581;50.088;19.966;2024-03-17T01:55:36;99394.84;;;7.40;74.36
53484;BME280;75581;50.088;19.966;2024-03-17T01:58:07;99395.55;;;7.38;74.27
53484;BME280;75581;50.088;19.966;2024-03-17T02:00:37;99397.90;;;7.34;73.98
53484;BME280;75581;50.088;19.966;2024-03-17T02:03:07;99409.09;;;7.30;73.96
53484;BME280;75581;50.088;19.966;2024-03-17T02:05:38;99410.92;;;7.25;73.95
53484;BME280;75581;50.088;19.966;2024-03-17T02:08:06;99427.25;;;7.22;74.06
53484;BME280;75581;50.088;19.966;2024-03-17T02:10:34;99433.72;;;7.22;74.19
53484;BME280;75581;50.088;19.966;2024-03-17T02:13:03;99440.42;;;7.22;74.10
53484;BME280;75581;50.088;19.966;2024-03-17T02:15:32;99447.31;;;7.20;74.11
53484;BME280;75581;50.088;19.966;2024-03-17T02:18:00;99442.56;;;7.18;73.85
53484;BME280;75581;50.088;19.966;2024-03-17T02:20:27;99460.64;;;7.16;73.85
53484;BME280;75581;50.088;19.966;2024-03-17T02:23:14;99467.05;;;7.15;73.79
53484;BME280;75581;50.088;19.966;2024-03-17T02:25:41;99461.67;;;7.12;73.15
53484;BME280;75581;50.088;19.966;2024-03-17T02:28:11;99467.04;;;7.07;72.66
53484;BME280;75581;50.088;19.966;2024-03-17T02:30:39;99473.20;;;7.04;72.53
53484;BME280;75581;50.088;19.966;2024-03-17T02:33:06;99479.06;;;7.02;72.43
53484;BME280;75581;50.088;19.966;2024-03-17T02:35:34;99483.25;;;7.00;72.16
53484;BME280;75581;50.088;19.966;2024-03-17T02:38:02;99491.27;;;6.98;72.14
53484;BME280;75581;50.088;19.966;2024-03-17T02:40:30;99489.92;;;6.98;72.28
53484;BME280;75581;50.088;19.966;2024-03-17T02:42:57;99494.09;;;6.99;72.18
53484;BME280;75581;50.088;19.966;2024-03-17T02:45:25;99500.00;;;7.00;71.95
53484;BME280;75581;50.088;19.966;2024-03-17T02:47:53;99508.70;;;7.01;71.85
53484;BME280;75581;50.088;19.966;2024-03-17T02:50:22;99512.23;;;7.02;71.78
53484;BME280;75581;50.088;19.966;2024-03-17T02:52:50;99514.15;;;7.04;71.86
53484;BME280;75581;50.088;19.966;2024-03-17T02:55:18;99513.05;;;7.05;71.68
53484;BME280;75581;50.088;19.966;2024-03-17T02:57:45;99514.45;;;7.08;71.70
53484;BME280;75581;50.088;19.966;2024-03-17T03:00:13;99516.44;;;7.10;71.45
53484;BME280;75581;50.088;19.966;2024-03-17T03:02:41;99519.47;;;7.09;71.40
53484;BME280;75581;50.088;19.966;2024-03-17T03:05:09;99521.33;;;7.09;71.19
53484;BME280;75581;50.088;19.966;2024-03-17T03:07:38;99527.58;;;7.06;71.24
53484;BME280;75581;50.088;19.966;2024-03-17T03:10:05;99527.71;;;7.05;71.27
53484;BME280;75581;50.088;19.966;2024-03-17T03:12:33;99523.86;;;7.04;71.22
53484;BME280;75581;50.088;19.966;2024-03-17T03:15:01;99526.91;;;7.03;71.30
53484;BME280;75581;50.088;19.966;2024-03-17T03:17:30;99531.82;;;7.04;71.27
53484;BME280;75581;50.088;19.966;2024-03-17T03:19:58;99532.48;;;7.03;71.21
53484;BME280;75581;50.088;19.966;2024-03-17T03:22:25;99531.46;;;7.03;71.12
53484;BME280;75581;50.088;19.966;2024-03-17T03:24:53;99524.23;;;7.01;71.06
53484;BME280;75581;50.088;19.966;2024-03-17T03:27:21;99524.61;;;7.00;71.04
53484;BME280;75581;50.088;19.966;2024-03-17T03:29:49;99529.32;;;6.99;71.17
53484;BME280;75581;50.088;19.966;2024-03-17T03:32:17;99531.73;;;6.99;71.16
53484;BME280;75581;50.088;19.966;2024-03-17T03:34:44;99538.68;;;6.98;71.23
53484;BME280;75581;50.088;19.966;2024-03-17T03:37:12;99538.98;;;6.97;71.21
53484;BME280;75581;50.088;19.966;2024-03-17T03:39:40;99542.07;;;6.95;71.16
53484;BME280;75581;50.088;19.966;2024-03-17T03:42:08;99547.23;;;6.94;71.19
53484;BME280;75581;50.088;19.966;2024-03-17T03:44:36;99547.94;;;6.94;71.29
53484;BME280;75581;50.088;19.966;2024-03-17T03:47:03;99550.63;;;6.95;71.36
53484;BME280;75581;50.088;19.966;2024-03-17T03:49:31;99549.55;;;6.95;71.48
53484;BME280;75581;50.088;19.966;2024-03-17T03:51:59;99554.68;;;6.96;71.57
53484;BME280;75581;50.088;19.966;2024-03-17T03:54:27;99557.50;;;6.95;71.53
53484;BME280;75581;50.088;19.966;2024-03-17T03:56:55;99558.77;;;6.94;71.60
53484;BME280;75581;50.088;19.966;2024-03-17T03:59:24;99563.66;;;6.95;71.70
53484;BME280;75581;50.088;19.966;2024-03-17T04:01:51;99563.05;;;6.94;71.69
53484;BME280;75581;50.088;19.966;2024-03-17T04:04:19;99563.05;;;6.94;71.73
53484;BME280;75581;50.088;19.966;2024-03-17T04:06:47;99564.88;;;6.94;71.74
53484;BME280;75581;50.088;19.966;2024-03-17T04:09:15;99568.75;;;6.94;71.81
53484;BME280;75581;50.088;19.966;2024-03-17T04:11:42;99573.17;;;6.93;71.79
53484;BME280;75581;50.088;19.966;2024-03-17T04:14:10;99574.92;;;6.90;71.77
53484;BME280;75581;50.088;19.966;2024-03-17T04:16:38;99577.77;;;6.88;71.79
53484;BME280;75581;50.088;19.966;2024-03-17T04:19:05;99579.20;;;6.83;71.76
53484;BME280;75581;50.088;19.966;2024-03-17T04:21:34;99578.67;;;6.79;71.73
53484;BME280;75581;50.088;19.966;2024-03-17T04:24:02;99577.92;;;6.75;71.72
53484;BME280;75581;50.088;19.966;2024-03-17T04:26:30;99575.30;;;6.71;71.81
53484;BME280;75581;50.088;19.966;2024-03-17T04:28:57;99575.11;;;6.67;71.87
53484;BME280;75581;50.088;19.966;2024-03-17T04:31:25;99577.60;;;6.64;71.79
53484;BME280;75581;50.088;19.966;2024-03-17T04:33:53;99583.41;;;6.60;71.77
53484;BME280;75581;50.088;19.966;2024-03-17T04:36:21;99579.16;;;6.56;71.57
53484;BME280;75581;50.088;19.966;2024-03-17T04:38:49;99582.48;;;6.50;71.51
53484;BME280;75581;50.088;19.966;2024-03-17T04:41:18;99582.42;;;6.43;71.13
53484;BME280;75581;50.088;19.966;2024-03-17T04:43:46;99583.06;;;6.35;71.14
53484;BME280;75581;50.088;19.966;2024-03-17T04:46:14;99590.00;;;6.28;71.04
53484;BME280;75581;50.088;19.966;2024-03-17T04:48:50;99593.16;;;6.22;71.33
53484;BME280;75581;50.088;19.966;2024-03-17T04:51:18;99594.02;;;6.18;71.49
53484;BME280;75581;50.088;19.966;2024-03-17T04:53:45;99591.93;;;6.12;71.54
53484;BME280;75581;50.088;19.966;2024-03-17T04:56:13;99595.79;;;6.06;71.50
53484;BME280;75581;50.088;19.966;2024-03-17T04:58:41;99598.91;;;6.01;71.47
53484;BME280;75581;50.088;19.966;2024-03-17T05:01:09;99597.09;;;5.98;71.45
53484;BME280;75581;50.088;19.966;2024-03-17T05:03:37;99600.48;;;5.94;70.98
53484;BME280;75581;50.088;19.966;2024-03-17T05:06:05;99607.55;;;5.88;70.64
53484;BME280;75581;50.088;19.966;2024-03-17T05:08:34;99609.34;;;5.83;70.69
53484;BME280;75581;50.088;19.966;2024-03-17T05:11:05;99615.70;;;5.79;70.72
53484;BME280;75581;50.088;19.966;2024-03-17T05:13:35;99621.48;;;5.76;70.73
53484;BME280;75581;50.088;19.966;2024-03-17T05:16:03;99626.07;;;5.71;70.70
53484;BME280;75581;50.088;19.966;2024-03-17T05:18:31;99630.92;;;5.67;70.62
53484;BME280;75581;50.088;19.966;2024-03-17T05:21:03;99632.08;;;5.63;70.49
53484;BME280;75581;50.088;19.966;2024-03-17T05:23:33;99633.73;;;5.59;70.26
53484;BME280;75581;50.088;19.966;2024-03-17T05:26:01;99633.42;;;5.56;70.05
53484;BME280;75581;50.088;19.966;2024-03-17T05:28:31;99632.55;;;5.52;69.74
53484;BME280;75581;50.088;19.966;2024-03-17T05:30:59;99632.43;;;5.48;69.43
53484;BME280;75581;50.088;19.966;2024-03-17T05:33:27;99642.13;;;5.44;69.06
53484;BME280;75581;50.088;19.966;2024-03-17T05:35:57;99640.56;;;5.40;68.63
53484;BME280;75581;50.088;19.966;2024-03-17T05:38:27;99645.33;;;5.36;68.57
53484;BME280;75581;50.088;19.966;2024-03-17T05:41:04;99649.55;;;5.33;68.54
53484;BME280;75581;50.088;19.966;2024-03-17T05:43:34;99654.73;;;5.29;68.49
53484;BME280;75581;50.088;19.966;2024-03-17T05:46:07;99653.92;;;5.27;68.42
53484;BME280;75581;50.088;19.966;2024-03-17T05:48:37;99652.98;;;5.28;68.52
53484;BME280;75581;50.088;19.966;2024-03-17T05:51:07;99654.47;;;5.32;68.32
53484;BME280;75581;50.088;19.966;2024-03-17T05:53:35;99653.44;;;5.37;68.27
53484;BME280;75581;50.088;19.966;2024-03-17T05:56:05;99659.20;;;5.45;68.21
53484;BME280;75581;50.088;19.966;2024-03-17T05:58:35;99659.02;;;5.55;67.46
53484;BME280;75581;50.088;19.966;2024-03-17T06:01:03;99663.95;;;5.62;66.68
53484;BME280;75581;50.088;19.966;2024-03-17T06:03:31;99668.09;;;5.69;66.55
53484;BME280;75581;50.088;19.966;2024-03-17T06:05:59;99668.33;;;5.79;66.05
53484;BME280;75581;50.088;19.966;2024-03-17T06:08:27;99668.67;;;5.86;65.35
53484;BME280;75581;50.088;19.966;2024-03-17T06:10:55;99669.36;;;5.91;64.95
53484;BME280;75581;50.088;19.966;2024-03-17T06:13:27;99670.76;;;6.02;65.17
53484;BME280;75581;50.088;19.966;2024-03-17T06:15:55;99671.17;;;6.14;65.15
53484;BME280;75581;50.088;19.966;2024-03-17T06:18:29;99670.25;;;6.26;64.40
53484;BME280;75581;50.088;19.966;2024-03-17T06:20:57;99670.55;;;6.39;63.86
53484;BME280;75581;50.088;19.966;2024-03-17T06:23:28;99669.26;;;6.44;63.23
53484;BME280;75581;50.088;19.966;2024-03-17T06:25:55;99667.59;;;6.52;63.41
53484;BME280;75581;50.088;19.966;2024-03-17T06:28:24;99670.98;;;6.63;63.32
53484;BME280;75581;50.088;19.966;2024-03-17T06:30:56;99674.27;;;6.77;63.27
53484;BME280;75581;50.088;19.966;2024-03-17T06:33:26;99679.77;;;6.93;62.67
53484;BME280;75581;50.088;19.966;2024-03-17T06:35:55;99674.11;;;6.96;60.81
53484;BME280;75581;50.088;19.966;2024-03-17T06:38:23;99678.58;;;6.88;59.94
53484;BME280;75581;50.088;19.966;2024-03-17T06:40:51;99680.35;;;6.78;59.40
53484;BME280;75581;50.088;19.966;2024-03-17T06:43:20;99687.13;;;6.73;59.34
53484;BME280;75581;50.088;19.966;2024-03-17T06:45:57;99694.89;;;6.74;59.87
53484;BME280;75581;50.088;19.966;2024-03-17T06:48:26;99689.48;;;6.85;59.75
53484;BME280;75581;50.088;19.966;2024-03-17T06:50:54;99695.30;;;6.93;59.75
53484;BME280;75581;50.088;19.966;2024-03-17T06:53:23;99691.74;;;7.05;59.95
53484;BME280;75581;50.088;19.966;2024-03-17T06:55:57;99693.06;;;7.17;59.44
53484;BME280;75581;50.088;19.966;2024-03-17T06:58:26;99697.79;;;7.24;59.41
53484;BME280;75581;50.088;19.966;2024-03-17T07:01:01;99700.19;;;7.34;59.18
53484;BME280;75581;50.088;19.966;2024-03-17T07:03:31;99701.67;;;7.42;58.99
53484;BME280;75581;50.088;19.966;2024-03-17T07:06:01;99697.61;;;7.45;58.75
53484;BME280;75581;50.088;19.966;2024-03-17T07:08:30;99693.77;;;7.42;58.25
53484;BME280;75581;50.088;19.966;2024-03-17T07:11:06;99689.08;;;7.36;57.98
53484;BME280;75581;50.088;19.966;2024-03-17T07:13:38;99691.81;;;7.34;58.24
53484;BME280;75581;50.088;19.966;2024-03-17T07:16:06;99692.65;;;7.42;58.75
53484;BME280;75581;50.088;19.966;2024-03-17T07:18:34;99688.67;;;7.58;58.94
53484;BME280;75581;50.088;19.966;2024-03-17T07:21:04;99689.32;;;7.74;58.67
53484;BME280;75581;50.088;19.966;2024-03-17T07:23:32;99690.95;;;7.89;58.53
53484;BME280;75581;50.088;19.966;2024-03-17T07:26:01;99690.82;;;8.00;58.18
53484;BME280;75581;50.088;19.966;2024-03-17T07:28:29;99686.34;;;8.14;57.76
53484;BME280;75581;50.088;19.966;2024-03-17T07:30:58;99687.88;;;8.21;57.28
53484;BME280;75581;50.088;19.966;2024-03-17T07:33:28;99680.30;;;8.28;56.93
53484;BME280;75581;50.088;19.966;2024-03-17T07:35:57;99678.31;;;8.49;56.81
53484;BME280;75581;50.088;19.966;2024-03-17T07:38:28;99672.41;;;8.68;55.69
53484;BME280;75581;50.088;19.966;2024-03-17T07:43:27;99675.08;;;8.82;55.03
53484;BME280;75581;50.088;19.966;2024-03-17T07:46:00;99677.67;;;9.16;54.95
53484;BME280;75581;50.088;19.966;2024-03-17T07:48:30;99676.11;;;9.70;53.96
53484;BME280;75581;50.088;19.966;2024-03-17T07:51:17;99679.59;;;10.68;51.38
53484;BME280;75581;50.088;19.966;2024-03-17T07:53:45;99684.75;;;12.15;50.74
53484;BME280;75581;50.088;19.966;2024-03-17T07:56:15;99683.63;;;12.93;48.50
53484;BME280;75581;50.088;19.966;2024-03-17T07:58:44;99680.08;;;13.55;46.39
53484;BME280;75581;50.088;19.966;2024-03-17T08:01:14;99679.85;;;14.46;43.27
53484;BME280;75581;50.088;19.966;2024-03-17T08:03:45;99678.48;;;14.62;43.12
53484;BME280;75581;50.088;19.966;2024-03-17T08:06:13;99683.10;;;14.90;43.82
53484;BME280;75581;50.088;19.966;2024-03-17T08:08:41;99680.52;;;16.37;44.11
53484;BME280;75581;50.088;19.966;2024-03-17T08:11:09;99678.35;;;17.50;42.29
53484;BME280;75581;50.088;19.966;2024-03-17T08:13:37;99676.17;;;17.76;38.01
53484;BME280;75581;50.088;19.966;2024-03-17T08:16:06;99684.82;;;17.35;37.34
53484;BME280;75581;50.088;19.966;2024-03-17T08:18:36;99677.13;;;17.18;36.63
53484;BME280;75581;50.088;19.966;2024-03-17T08:21:04;99671.67;;;16.24;36.09
53484;BME280;75581;50.088;19.966;2024-03-17T08:23:33;99670.71;;;15.45;37.45
53484;BME280;75581;50.088;19.966;2024-03-17T08:26:05;99683.11;;;15.01;37.23
53484;BME280;75581;50.088;19.966;2024-03-17T08:28:32;99686.61;;;14.51;39.07
53484;BME280;75581;50.088;19.966;2024-03-17T08:31:01;99684.73;;;15.82;39.28
53484;BME280;75581;50.088;19.966;2024-03-17T08:33:30;99691.70;;;17.01;38.77
53484;BME280;75581;50.088;19.966;2024-03-17T08:36:00;99680.64;;;18.38;38.09
53484;BME280;75581;50.088;19.966;2024-03-17T08:38:33;99682.79;;;20.09;37.52
53484;BME280;75581;50.088;19.966;2024-03-17T08:41:05;99681.68;;;20.42;34.58
53484;BME280;75581;50.088;19.966;2024-03-17T08:43:35;99683.76;;;20.53;31.48
53484;BME280;75581;50.088;19.966;2024-03-17T08:46:04;99677.59;;;20.58;31.00
53484;BME280;75581;50.088;19.966;2024-03-17T08:48:34;99681.27;;;20.51;31.18
53484;BME280;75581;50.088;19.966;2024-03-17T08:51:04;99679.34;;;20.89;30.94
53484;BME280;75581;50.088;19.966;2024-03-17T08:53:32;99673.09;;;21.10;29.76
53484;BME280;75581;50.088;19.966;2024-03-17T08:56:00;99678.50;;;20.81;28.42
53484;BME280;75581;50.088;19.966;2024-03-17T08:58:30;99670.73;;;20.82;28.65
53484;BME280;75581;50.088;19.966;2024-03-17T09:00:58;99675.95;;;20.90;29.41
53484;BME280;75581;50.088;19.966;2024-03-17T09:03:26;99672.52;;;20.44;28.37
53484;BME280;75581;50.088;19.966;2024-03-17T09:05:54;99673.33;;;19.52;28.81
53484;BME280;75581;50.088;19.966;2024-03-17T09:08:23;99667.06;;;18.44;29.30
53484;BME280;75581;50.088;19.966;2024-03-17T09:10:52;99667.23;;;18.64;30.46
53484;BME280;75581;50.088;19.966;2024-03-17T09:13:22;99666.70;;;18.93;30.36
53484;BME280;75581;50.088;19.966;2024-03-17T09:15:55;99668.83;;;18.29;30.78
53484;BME280;75581;50.088;19.966;2024-03-17T09:18:31;99668.95;;;16.77;30.42
53484;BME280;75581;50.088;19.966;2024-03-17T09:21:06;99669.34;;;15.17;31.53
53484;BME280;75581;50.088;19.966;2024-03-17T09:23:37;99671.88;;;13.80;32.91
53484;BME280;75581;50.088;19.966;2024-03-17T09:26:08;99671.91;;;12.70;34.30
53484;BME280;75581;50.088;19.966;2024-03-17T09:28:36;99677.81;;;11.82;35.90
53484;BME280;75581;50.088;19.966;2024-03-17T09:31:04;99673.60;;;11.14;36.85
53484;BME280;75581;50.088;19.966;2024-03-17T09:33:36;99675.13;;;10.67;37.94
53484;BME280;75581;50.088;19.966;2024-03-17T09:36:08;99676.47;;;10.35;38.76
53484;BME280;75581;50.088;19.966;2024-03-17T09:38:41;99675.05;;;10.06;39.13
53484;BME280;75581;50.088;19.966;2024-03-17T09:41:22;99672.96;;;9.83;39.93
53484;BME280;75581;50.088;19.966;2024-03-17T09:43:53;99671.65;;;9.49;40.45
53484;BME280;75581;50.088;19.966;2024-03-17T09:46:26;99677.55;;;9.22;41.27
53484;BME280;75581;50.088;19.966;2024-03-17T09:48:56;99670.08;;;9.09;41.84
53484;BME280;75581;50.088;19.966;2024-03-17T09:51:25;99670.55;;;9.00;41.93
53484;BME280;75581;50.088;19.966;2024-03-17T09:53:53;99671.86;;;8.85;42.42
53484;BME280;75581;50.088;19.966;2024-03-17T09:56:21;99666.79;;;8.85;42.76
53484;BME280;75581;50.088;19.966;2024-03-17T09:58:51;99666.54;;;8.92;42.98
53484;BME280;75581;50.088;19.966;2024-03-17T10:01:19;99653.05;;;8.96;42.70
53484;BME280;75581;50.088;19.966;2024-03-17T10:03:51;99656.14;;;8.94;42.74
53484;BME280;75581;50.088;19.966;2024-03-17T10:06:23;99660.28;;;8.91;42.90
53484;BME280;75581;50.088;19.966;2024-03-17T10:08:58;99661.88;;;8.89;43.15
53484;BME280;75581;50.088;19.966;2024-03-17T10:11:35;99653.85;;;8.86;43.13
53484;BME280;75581;50.088;19.966;2024-03-17T10:14:08;99652.42;;;8.88;43.37
53484;BME280;75581;50.088;19.966;2024-03-17T10:16:37;99645.91;;;8.87;43.37
53484;BME280;75581;50.088;19.966;2024-03-17T10:19:12;99647.56;;;8.84;43.34
53484;BME280;75581;50.088;19.966;2024-03-17T10:21:43;99654.13;;;8.72;43.31
53484;BME280;75581;50.088;19.966;2024-03-17T10:24:13;99644.81;;;8.63;43.96
53484;BME280;75581;50.088;19.966;2024-03-17T10:26:47;99646.87;;;8.58;43.88
53484;BME280;75581;50.088;19.966;2024-03-17T10:29:35;99640.79;;;8.55;44.07
53484;BME280;75581;50.088;19.966;2024-03-17T10:32:14;99634.52;;;8.56;44.00
53484;BME280;75581;50.088;19.966;2024-03-17T10:34:44;99628.41;;;8.60;43.74
53484;BME280;75581;50.088;19.966;2024-03-17T10:37:14;99640.91;;;8.59;43.72
53484;BME280;75581;50.088;19.966;2024-03-17T10:39:43;99630.82;;;8.57;43.71
53484;BME280;75581;50.088;19.966;2024-03-17T10:42:12;99629.95;;;8.62;43.72
53484;BME280;75581;50.088;19.966;2024-03-17T10:44:42;99620.70;;;8.71;43.85
53484;BME280;75581;50.088;19.966;2024-03-17T10:47:24;99620.91;;;8.80;43.73
53484;BME280;75581;50.088;19.966;2024-03-17T10:49:54;99622.91;;;8.86;43.66
53484;BME280;75581;50.088;19.966;2024-03-17T10:52:23;99628.79;;;8.90;43.60
53484;BME280;75581;50.088;19.966;2024-03-17T10:54:55;99628.52;;;8.93;43.35
53484;BME280;75581;50.088;19.966;2024-03-17T11:00:04;99626.23;;;8.92;42.63
53484;BME280;75581;50.088;19.966;2024-03-17T11:02:33;99623.14;;;8.97;43.08
53484;BME280;75581;50.088;19.966;2024-03-17T11:05:05;99623.21;;;9.01;43.19
53484;BME280;75581;50.088;19.966;2024-03-17T11:07:35;99617.66;;;9.03;42.99
53484;BME280;75581;50.088;19.966;2024-03-17T11:10:32;99616.69;;;9.03;42.20
53484;BME280;75581;50.088;19.966;2024-03-17T11:13:01;99618.94;;;8.86;42.22
53484;BME280;75581;50.088;19.966;2024-03-17T11:20:39;99614.02;;;8.56;42.46
53484;BME280;75581;50.088;19.966;2024-03-17T11:23:08;99605.56;;;8.49;42.11
53484;BME280;75581;50.088;19.966;2024-03-17T11:25:39;99601.88;;;8.42;41.85
53484;BME280;75581;50.088;19.966;2024-03-17T11:28:09;99601.69;;;8.34;41.48
53484;BME280;75581;50.088;19.966;2024-03-17T11:39:07;99598.73;;;8.34;42.30
53484;BME280;75581;50.088;19.966;2024-03-17T11:41:45;99600.48;;;8.30;42.10
53484;BME280;75581;50.088;19.966;2024-03-17T11:47:01;99605.41;;;8.29;42.36
53484;BME280;75581;50.088;19.966;2024-03-17T11:49:33;99605.83;;;8.36;42.30
53484;BME280;75581;50.088;19.966;2024-03-17T11:52:02;99599.70;;;8.41;42.25
53484;BME280;75581;50.088;19.966;2024-03-17T11:54:33;99589.52;;;8.46;42.53
53484;BME280;75581;50.088;19.966;2024-03-17T11:57:09;99585.30;;;8.53;42.31
53484;BME280;75581;50.088;19.966;2024-03-17T11:59:45;99581.61;;;8.57;42.04
53484;BME280;75581;50.088;19.966;2024-03-17T12:02:22;99580.52;;;8.54;41.95
53484;BME280;75581;50.088;19.966;2024-03-17T12:04:52;99570.70;;;8.55;42.09
53484;BME280;75581;50.088;19.966;2024-03-17T12:07:21;99574.37;;;8.53;42.02
53484;BME280;75581;50.088;19.966;2024-03-17T12:09:54;99573.90;;;8.54;41.98
53484;BME280;75581;50.088;19.966;2024-03-17T12:12:25;99568.56;;;8.61;42.19
53484;BME280;75581;50.088;19.966;2024-03-17T12:15:03;99556.15;;;8.72;41.75
53484;BME280;75581;50.088;19.966;2024-03-17T12:17:38;99563.27;;;8.76;41.49
53484;BME280;75581;50.088;19.966;2024-03-17T12:20:06;99559.05;;;8.77;41.43
53484;BME280;75581;50.088;19.966;2024-03-17T12:22:41;99556.42;;;8.78;41.57
53484;BME280;75581;50.088;19.966;2024-03-17T12:25:19;99550.91;;;8.83;41.87
53484;BME280;75581;50.088;19.966;2024-03-17T12:27:48;99552.30;;;8.89;41.55
53484;BME280;75581;50.088;19.966;2024-03-17T12:30:16;99549.75;;;8.95;41.90
53484;BME280;75581;50.088;19.966;2024-03-17T12:32:46;99556.48;;;9.05;41.66
53484;BME280;75581;50.088;19.966;2024-03-17T12:35:15;99538.09;;;9.07;41.30
53484;BME280;75581;50.088;19.966;2024-03-17T12:37:47;99543.02;;;9.12;41.50
53484;BME280;75581;50.088;19.966;2024-03-17T12:40:20;99541.19;;;9.16;41.08
53484;BME280;75581;50.088;19.966;2024-03-17T12:42:50;99539.27;;;9.21;41.69
53484;BME280;75581;50.088;19.966;2024-03-17T12:45:21;99536.25;;;9.25;41.41
53484;BME280;75581;50.088;19.966;2024-03-17T12:47:50;99536.34;;;9.26;41.33
53484;BME280;75581;50.088;19.966;2024-03-17T12:50:19;99532.41;;;9.26;40.96
53484;BME280;75581;50.088;19.966;2024-03-17T12:52:55;99529.92;;;9.26;41.16
53484;BME280;75581;50.088;19.966;2024-03-17T12:55:23;99527.66;;;9.30;40.97
53484;BME280;75581;50.088;19.966;2024-03-17T12:58:10;99529.81;;;9.36;41.13
53484;BME280;75581;50.088;19.966;2024-03-17T13:03:29;99529.56;;;9.43;40.76
53484;BME280;75581;50.088;19.966;2024-03-17T13:05:57;99524.55;;;9.51;40.92
53484;BME280;75581;50.088;19.966;2024-03-17T13:08:25;99520.21;;;9.57;40.45
53484;BME280;75581;50.088;19.966;2024-03-17T13:10:53;99516.05;;;9.55;39.96
53484;BME280;75581;50.088;19.966;2024-03-17T13:13:21;99521.83;;;9.52;40.23
53484;BME280;75581;50.088;19.966;2024-03-17T13:15:48;99518.87;;;9.53;40.45
53484;BME280;75581;50.088;19.966;2024-03-17T13:18:20;99518.42;;;9.56;40.32
53484;BME280;75581;50.088;19.966;2024-03-17T13:20:50;99516.34;;;9.61;40.25
53484;BME280;75581;50.088;19.966;2024-03-17T13:23:19;99505.28;;;9.64;39.65
53484;BME280;75581;50.088;19.966;2024-03-17T13:25:48;99507.97;;;9.60;39.71
53484;BME280;75581;50.088;19.966;2024-03-17T13:28:16;99517.08;;;9.60;39.29
53484;BME280;75581;50.088;19.966;2024-03-17T13:30:44;99517.30;;;9.65;39.19
53484;BME280;75581;50.088;19.966;2024-03-17T13:33:12;99520.38;;;9.66;39.15
53484;BME280;75581;50.088;19.966;2024-03-17T13:35:40;99521.23;;;9.65;38.77